メインページ
METAR-TAF:

METAR-TAF

空港 :

イエローナイフ, ノースウェスト準州, カナダ

イエローナイフ空港

緯度: 62-28N, 経度: 114-27W, 海抜: 205m

現時点の気象観測

当レポートは1時間7分前の11:00(UTC)に作成
東/南東の風 13kt
気温 -17°C
湿度 59%
気圧 1017 hPa
視程: 24.1km
高度24000ftの雲は散在している

METAR: CYZF 241100Z 11013KT 15SM SCT240 M17/M23 A3003 RMK CI4 SLP192

時間: 06:07 (12:07 UTC)

予報

当レポートは29分前の11:38(UTC)に作成
予報は24日の 12時(UTC)から 25日の 12時(UTC)まで有効
東/南東の風 12kt
視程: 10km
高度8000ftの雲は散在している
高度24000ftの雲は散在している
24日の 12時(UTC)から 24日の 19時(UTC)まで一時的に
視程: 4.8km
高度4000ftの千切れ雲あり
高度8000ftの曇り
小雪
24日の 1900時(UTC)から
南東の風 12kt
視程: 10km
高度2000ftの雲は散在している
高度4000ftの千切れ雲あり
24日の 19時(UTC)から 25日の 03時(UTC)まで一時的に
視程: 10km
高度2000ftの千切れ雲あり
高度4000ftの曇り
小雪
25日の 0300時(UTC)から
北西の風 5kt
視程: 10km
高度4000ftの雲はほとんどない
25日の 04時(UTC)から 25日の 06時(UTC)まで徐々に
の風 8kt

TAF: CYZF 241138Z 2412/2512 11012KT P6SM SCT080 SCT240 TEMPO 2412/2419 3SM -SN BKN040 OVC080 FM241900 13012KT P6SM SCT020 BKN040 TEMPO 2419/2503 P6SM -SN BKN020 OVC040 FM250300 31005KT P6SM FEW040 BECMG 2504/2506 36008KT RMK NXT FCST BY 241800Z

4,000以上の空港の気象観測と天気予報(METAR報とTAF報)

利用可能な観測所は地図上に黄色い丸と赤い丸で示す。

丸の上にカーソルを重ねると観測所名を参照できる。

次にクリックすると気象観測と天気予報を参照できる。

マップの切り替え:黒色「×」印の緑ボタンをクリックして拡大、「-」印の緑ボタンをクリックして縮小、緑色の三角印をクリックして隣りの地図に切り替え


METAR-TAF: